Time;durP1;ratioP1;P1;durP2;ratioP2;P2;SDS_P1;SDS_P2;PMS_P1;PMS_P2;Temp;Humidity;BMP_temperature;BMP_pressure;BME280_temperature;BME280_humidity;BME280_pressure;Samples;Min_cycle;Max_cycle;Signal;HPM_P1;HPM_P2
2023/03/10 00:02:19;;;;;;;29.20;14.90;;;1.70;99.90;;;;;;4978117;28;20070;-84
2023/03/10 00:04:49;;;;;;;26.33;14.45;;;1.80;99.90;;;;;;4990093;28;20040;-86
2023/03/10 00:07:15;;;;;;;25.92;14.80;;;1.70;99.90;;;;;;4979502;28;21283;-86
2023/03/10 00:09:40;;;;;;;26.05;14.50;;;1.70;99.90;;;;;;4992637;28;20460;-86
2023/03/10 00:12:07;;;;;;;24.05;13.48;;;1.80;99.90;;;;;;5001707;28;20357;-86
2023/03/10 00:14:32;;;;;;;22.20;13.68;;;1.80;99.90;;;;;;4983716;28;20046;-86
2023/03/10 00:16:58;;;;;;;25.92;13.60;;;1.80;99.90;;;;;;4986982;28;20458;-86
2023/03/10 00:19:25;;;;;;;26.33;14.75;;;1.70;99.90;;;;;;4971052;28;20061;-86
2023/03/10 00:21:51;;;;;;;25.60;14.82;;;1.90;99.90;;;;;;4975035;28;20723;-86
2023/03/10 00:24:17;;;;;;;26.65;14.50;;;1.80;99.90;;;;;;4978264;28;20750;-85
2023/03/10 00:26:47;;;;;;;24.88;14.57;;;1.90;99.90;;;;;;4983799;28;20297;-85
2023/03/10 00:29:13;;;;;;;26.40;14.60;;;1.80;99.90;;;;;;4985287;28;20046;-86
2023/03/10 00:31:39;;;;;;;25.95;15.05;;;1.80;99.90;;;;;;4995240;28;20042;-86
2023/03/10 00:34:05;;;;;;;25.65;14.68;;;1.70;99.90;;;;;;4978068;28;20460;-86
2023/03/10 00:36:32;;;;;;;25.13;14.20;;;1.70;99.90;;;;;;4972866;28;20038;-85
2023/03/10 00:39:04;;;;;;;24.08;13.63;;;1.90;99.90;;;;;;4977371;28;20046;-86
2023/03/10 00:41:32;;;;;;;25.40;14.77;;;1.90;99.90;;;;;;5001091;28;20121;-86
2023/03/10 00:43:59;;;;;;;29.60;15.95;;;1.90;99.90;;;;;;4965149;28;20047;-86
2023/03/10 00:46:26;;;;;;;24.25;14.18;;;1.70;99.90;;;;;;4982381;28;20412;-85
2023/03/10 00:48:52;;;;;;;25.23;14.68;;;1.80;99.90;;;;;;4960752;28;20091;-86
2023/03/10 00:51:19;;;;;;;25.30;14.57;;;1.90;99.90;;;;;;4973011;28;20538;-86
2023/03/10 00:53:45;;;;;;;25.30;15.27;;;1.80;99.90;;;;;;4983799;28;20169;-86
2023/03/10 00:56:13;;;;;;;27.08;15.65;;;1.70;99.90;;;;;;4971660;28;20482;-85
2023/03/10 00:58:39;;;;;;;26.67;14.77;;;1.90;99.90;;;;;;4999047;28;20039;-86
2023/03/10 01:01:15;;;;;;;24.67;14.88;;;1.90;99.90;;;;;;4996793;28;20509;-85
2023/03/10 01:03:42;;;;;;;24.38;14.60;;;1.90;99.90;;;;;;4987159;28;20044;-85
2023/03/10 01:06:08;;;;;;;24.80;14.80;;;1.80;99.90;;;;;;4989894;28;20142;-86
2023/03/10 01:08:34;;;;;;;25.52;14.85;;;2.00;99.90;;;;;;5040060;28;20244;-86
2023/03/10 01:10:59;;;;;;;26.80;15.68;;;1.90;99.90;;;;;;4976612;28;20062;-86
2023/03/10 01:13:25;;;;;;;27.05;15.23;;;1.90;99.90;;;;;;4959052;28;20678;-86
2023/03/10 01:15:51;;;;;;;26.05;15.73;;;1.80;99.90;;;;;;4998103;28;20051;-86
2023/03/10 01:18:19;;;;;;;27.70;16.00;;;1.90;99.90;;;;;;4974183;28;20110;-85
2023/03/10 01:20:45;;;;;;;29.77;16.45;;;1.90;99.90;;;;;;4992205;28;20041;-86
2023/03/10 01:23:19;;;;;;;33.10;17.73;;;2.00;99.90;;;;;;4984398;28;20030;-85
2023/03/10 01:25:45;;;;;;;27.42;16.33;;;1.80;99.90;;;;;;4982613;28;20027;-86
2023/03/10 01:28:11;;;;;;;30.50;17.58;;;1.90;99.90;;;;;;4975826;28;20118;-85
2023/03/10 01:30:38;;;;;;;31.13;18.20;;;1.90;99.90;;;;;;4979862;28;20048;-86
2023/03/10 01:33:04;;;;;;;30.45;17.60;;;2.00;99.90;;;;;;4978233;28;20062;-86
2023/03/10 01:35:31;;;;;;;33.55;18.30;;;2.00;99.90;;;;;;4987150;28;20581;-86
2023/03/10 01:37:57;;;;;;;31.58;19.08;;;1.80;99.90;;;;;;4972149;28;20728;-86
2023/03/10 01:40:25;;;;;;;32.33;18.15;;;2.00;99.90;;;;;;4980384;28;20044;-86
2023/03/10 01:43:11;;;;;;;31.75;18.55;;;1.80;99.90;;;;;;4983048;28;20076;-85
2023/03/10 01:45:36;;;;;;;29.90;16.80;;;1.90;99.90;;;;;;4987136;28;20052;-86
2023/03/10 01:48:05;;;;;;;30.80;18.67;;;1.80;99.90;;;;;;4993775;28;20517;-86
2023/03/10 01:50:31;;;;;;;30.65;18.83;;;1.80;99.90;;;;;;4991502;28;20386;-85
2023/03/10 01:52:57;;;;;;;30.65;18.02;;;2.00;99.90;;;;;;4998062;28;20371;-86
2023/03/10 01:55:29;;;;;;;29.67;17.85;;;2.00;99.90;;;;;;5002912;28;20031;-86
2023/03/10 01:57:56;;;;;;;30.85;17.83;;;2.00;99.90;;;;;;4976570;28;20068;-86
2023/03/10 02:00:28;;;;;;;31.33;18.02;;;1.90;99.90;;;;;;4979898;28;20050;-86
2023/03/10 02:03:35;;;;;;;28.88;17.33;;;2.00;99.90;;;;;;4997020;28;20141;-86
2023/03/10 02:06:07;;;;;;;30.50;17.42;;;1.80;99.90;;;;;;5020853;28;20036;-86
2023/03/10 02:08:45;;;;;;;31.45;16.88;;;1.80;99.90;;;;;;5053577;28;20048;-86
2023/03/10 02:11:17;;;;;;;26.92;16.15;;;1.80;99.90;;;;;;4994406;28;20038;-87
2023/03/10 02:13:43;;;;;;;28.73;17.25;;;1.90;99.90;;;;;;4986205;28;20429;-86
2023/03/10 02:16:09;;;;;;;25.55;15.02;;;1.90;99.90;;;;;;5077030;27;20034;-86
2023/03/10 02:18:35;;;;;;;24.85;14.50;;;2.00;99.90;;;;;;4981988;28;20043;-86
2023/03/10 02:21:26;;;;;;;24.98;15.15;;;1.90;99.90;;;;;;4975249;28;20102;-86
2023/03/10 02:24:15;;;;;;;24.13;14.60;;;1.90;99.90;;;;;;5080606;27;20115;-86
2023/03/10 02:26:44;;;;;;;21.05;12.95;;;2.00;99.90;;;;;;4979114;28;20095;-86
2023/03/10 02:29:19;;;;;;;22.90;12.73;;;2.00;99.90;;;;;;4973460;28;20062;-87
2023/03/10 02:31:45;;;;;;;23.77;12.82;;;1.90;99.90;;;;;;4981242;28;20534;-87
2023/03/10 02:34:12;;;;;;;20.75;12.50;;;2.00;99.90;;;;;;4993970;28;20069;-85
2023/03/10 02:36:38;;;;;;;19.95;12.23;;;1.80;99.90;;;;;;4984661;28;20048;-86
2023/03/10 02:39:05;;;;;;;19.08;11.68;;;1.90;99.90;;;;;;4997325;28;20040;-86
2023/03/10 02:41:35;;;;;;;19.73;11.45;;;1.90;99.90;;;;;;5075571;27;20141;-86
2023/03/10 02:44:07;;;;;;;19.45;11.20;;;1.90;99.90;;;;;;4984484;28;20030;-86
2023/03/10 02:46:33;;;;;;;17.33;10.63;;;1.80;99.90;;;;;;5043797;28;20025;-85
2023/03/10 02:49:00;;;;;;;18.13;10.95;;;2.00;99.90;;;;;;4992210;28;20100;-86
2023/03/10 02:51:30;;;;;;;18.27;11.63;;;1.90;99.90;;;;;;4965116;28;20042;-86
2023/03/10 02:53:59;;;;;;;17.50;11.30;;;2.00;99.90;;;;;;4976805;28;20031;-86
2023/03/10 02:56:25;;;;;;;19.63;11.30;;;1.90;99.90;;;;;;4973488;28;20376;-85
2023/03/10 02:58:51;;;;;;;21.88;12.88;;;1.80;99.90;;;;;;4992286;28;20082;-86
2023/03/10 03:01:20;;;;;;;19.20;11.60;;;2.00;99.90;;;;;;4971482;28;20046;-86
2023/03/10 03:03:45;;;;;;;19.85;11.40;;;2.10;99.90;;;;;;4975750;28;20152;-86
2023/03/10 03:06:20;;;;;;;20.30;12.15;;;2.10;99.90;;;;;;4979553;28;20114;-86
2023/03/10 03:08:47;;;;;;;19.70;11.70;;;2.10;99.90;;;;;;4996107;28;20073;-86
2023/03/10 03:11:13;;;;;;;18.77;10.80;;;2.10;99.90;;;;;;4992212;28;20046;-86
2023/03/10 03:13:42;;;;;;;17.52;11.30;;;2.10;99.90;;;;;;4969230;28;20149;-86
2023/03/10 03:16:10;;;;;;;20.02;11.82;;;1.90;99.90;;;;;;4975236;28;20047;-86
2023/03/10 03:18:36;;;;;;;20.80;12.13;;;2.10;99.90;;;;;;4983433;28;20047;-86
2023/03/10 03:21:16;;;;;;;19.95;12.25;;;2.10;99.90;;;;;;5062136;28;20265;-86
2023/03/10 03:23:44;;;;;;;20.52;12.23;;;2.00;99.90;;;;;;5001608;28;20034;-86
2023/03/10 03:26:19;;;;;;;21.10;12.30;;;2.10;99.90;;;;;;5003030;28;20039;-86
2023/03/10 03:28:45;;;;;;;25.10;13.35;;;2.10;99.90;;;;;;4978535;28;20108;-86
2023/03/10 03:31:23;;;;;;;22.77;12.95;;;2.10;99.90;;;;;;4994803;28;20058;-85
2023/03/10 03:33:49;;;;;;;22.90;12.48;;;1.90;99.90;;;;;;4965351;28;20038;-86
2023/03/10 03:36:15;;;;;;;20.25;12.40;;;2.00;99.90;;;;;;4977651;28;20055;-86
2023/03/10 03:38:41;;;;;;;21.48;12.90;;;2.00;99.90;;;;;;5046541;28;20038;-85
2023/03/10 03:41:16;;;;;;;22.25;12.55;;;2.00;99.90;;;;;;4991886;28;20039;-86
2023/03/10 03:43:41;;;;;;;;;;;2.10;99.90;;;;;;4997664;28;20045;-87
2023/03/10 03:46:07;;;;;;;23.10;12.70;;;2.10;99.90;;;;;;4979635;28;19920;-86
2023/03/10 03:48:33;;;;;;;21.95;12.70;;;1.90;99.90;;;;;;4981467;28;20046;-87
2023/03/10 03:51:02;;;;;;;22.58;13.82;;;1.90;99.90;;;;;;4977259;28;20050;-86
2023/03/10 03:53:28;;;;;;;24.35;14.48;;;1.90;99.90;;;;;;5010993;28;20038;-86
2023/03/10 03:55:54;;;;;;;21.27;13.10;;;1.90;99.90;;;;;;4967369;28;20576;-86
2023/03/10 03:58:20;;;;;;;22.17;12.90;;;2.00;99.90;;;;;;5057881;28;20129;-85
2023/03/10 04:00:48;;;;;;;22.77;13.48;;;1.90;99.90;;;;;;4998721;28;20378;-86
2023/03/10 04:03:14;;;;;;;27.60;16.00;;;2.10;99.90;;;;;;4975684;28;20045;-86
2023/03/10 04:05:40;;;;;;;25.38;14.57;;;2.10;99.90;;;;;;4982563;28;20127;-86
2023/03/10 04:08:06;;;;;;;26.10;14.30;;;1.90;99.90;;;;;;4992990;28;20037;-86
2023/03/10 04:10:31;;;;;;;27.48;15.10;;;2.10;99.90;;;;;;4992350;28;20038;-86
2023/03/10 04:12:57;;;;;;;30.02;17.40;;;2.10;99.90;;;;;;4966233;28;20618;-85
2023/03/10 04:15:23;;;;;;;28.70;16.50;;;2.00;99.90;;;;;;4970666;28;20030;-87
2023/03/10 04:17:49;;;;;;;29.58;16.50;;;2.10;99.90;;;;;;4982008;28;20074;-86
2023/03/10 04:20:15;;;;;;;30.38;16.98;;;2.10;99.90;;;;;;4991229;28;20049;-87
2023/03/10 04:22:41;;;;;;;30.45;16.17;;;1.90;99.90;;;;;;4993752;28;20521;-87
2023/03/10 04:25:10;;;;;;;30.88;16.92;;;2.10;99.90;;;;;;4998486;28;20436;-87
2023/03/10 04:27:36;;;;;;;30.58;16.83;;;1.90;99.90;;;;;;4971172;28;20083;-86
2023/03/10 04:30:03;;;;;;;32.58;17.85;;;2.10;99.90;;;;;;4980444;28;20050;-86
2023/03/10 04:32:29;;;;;;;33.20;17.27;;;1.80;99.90;;;;;;5058290;28;20481;-86
2023/03/10 04:34:54;;;;;;;31.45;17.98;;;1.90;99.90;;;;;;5058524;28;20121;-86
2023/03/10 04:37:21;;;;;;;34.30;17.88;;;2.00;99.90;;;;;;4970268;28;20073;-87
2023/03/10 04:39:49;;;;;;;30.63;17.45;;;2.00;99.90;;;;;;4992753;28;20046;-87
2023/03/10 04:42:15;;;;;;;34.35;18.42;;;2.00;99.90;;;;;;4966386;28;20038;-86
2023/03/10 04:44:41;;;;;;;34.75;18.42;;;1.90;99.90;;;;;;4986057;28;20516;-86
2023/03/10 04:47:07;;;;;;;32.53;18.02;;;1.90;99.90;;;;;;4997124;28;20027;-86
2023/03/10 04:49:32;;;;;;;34.92;18.02;;;1.80;99.90;;;;;;5002354;28;20133;-86
2023/03/10 04:51:58;;;;;;;34.17;18.15;;;2.00;99.90;;;;;;5004692;28;20038;-87
2023/03/10 04:54:27;;;;;;;34.92;19.05;;;1.70;99.90;;;;;;5014435;28;20043;-86
2023/03/10 04:56:52;;;;;;;37.25;19.00;;;1.70;99.90;;;;;;4976406;28;20121;-86
2023/03/10 04:59:20;;;;;;;38.60;18.70;;;1.80;99.90;;;;;;4987866;28;20041;-85
2023/03/10 05:01:46;;;;;;;35.85;19.33;;;1.70;99.90;;;;;;4993966;28;20043;-85
2023/03/10 05:04:12;;;;;;;32.55;17.30;;;1.70;99.90;;;;;;4976466;28;20113;-85
2023/03/10 05:06:38;;;;;;;33.83;18.25;;;1.80;99.90;;;;;;4975352;28;20125;-85
2023/03/10 05:09:04;;;;;;;34.25;18.98;;;1.90;99.90;;;;;;5054937;28;20070;-86
2023/03/10 05:11:30;;;;;;;34.55;18.27;;;1.90;99.90;;;;;;4976988;28;20046;-86
2023/03/10 05:13:59;;;;;;;39.92;18.92;;;1.90;99.90;;;;;;4980531;28;20074;-87
2023/03/10 05:16:24;;;;;;;37.13;19.35;;;1.70;99.90;;;;;;4997500;28;20544;-86
2023/03/10 05:18:50;;;;;;;41.35;21.27;;;1.70;99.90;;;;;;5040901;28;20053;-87
2023/03/10 05:21:16;;;;;;;40.28;20.70;;;1.90;99.90;;;;;;4996432;28;20042;-87
2023/03/10 05:23:42;;;;;;;41.10;20.70;;;1.80;99.90;;;;;;4966308;28;20062;-86
2023/03/10 05:26:11;;;;;;;41.92;21.70;;;1.80;99.90;;;;;;4990206;28;20121;-87
2023/03/10 05:28:37;;;;;;;39.95;20.45;;;1.80;99.90;;;;;;4992324;28;20042;-86
2023/03/10 05:31:13;;;;;;;49.15;23.15;;;1.90;99.90;;;;;;4974321;28;20411;-87
2023/03/10 05:33:41;;;;;;;47.53;22.05;;;1.70;99.90;;;;;;5059197;28;20469;-86
2023/03/10 05:36:13;;;;;;;43.20;20.77;;;1.70;99.90;;;;;;4961209;28;20046;-86
2023/03/10 05:38:39;;;;;;;47.92;21.90;;;1.90;99.90;;;;;;4980213;28;20077;-87
2023/03/10 05:41:10;;;;;;;48.42;23.50;;;1.70;99.90;;;;;;5042953;28;20547;-86
2023/03/10 05:43:37;;;;;;;53.92;24.52;;;1.80;99.90;;;;;;4974918;28;20054;-86
2023/03/10 05:46:04;;;;;;;55.70;26.13;;;1.80;99.90;;;;;;4997231;28;20040;-86
2023/03/10 05:48:30;;;;;;;55.38;25.33;;;1.70;99.90;;;;;;4969230;28;20042;-86
2023/03/10 05:50:57;;;;;;;58.90;27.58;;;1.90;99.90;;;;;;4989857;28;20423;-87
2023/03/10 05:53:25;;;;;;;62.47;27.30;;;1.80;99.90;;;;;;5040699;28;20500;-87
2023/03/10 05:55:52;;;;;;;59.80;27.75;;;1.90;99.90;;;;;;4992332;28;20044;-86
2023/03/10 05:58:18;;;;;;;57.10;26.63;;;1.70;99.90;;;;;;4987193;28;20046;-87
2023/03/10 06:00:44;;;;;;;58.22;25.85;;;1.70;99.90;;;;;;4982367;28;20293;-87
2023/03/10 06:03:10;;;;;;;59.35;27.45;;;1.90;99.90;;;;;;5042447;28;20115;-86
2023/03/10 06:05:35;;;;;;;58.30;26.20;;;1.90;99.90;;;;;;4973263;28;20502;-86
2023/03/10 06:08:01;;;;;;;55.13;26.50;;;1.70;99.90;;;;;;4990011;28;20039;-87
2023/03/10 06:10:29;;;;;;;53.83;24.58;;;1.70;99.90;;;;;;4980420;28;20038;-87
2023/03/10 06:12:55;;;;;;;51.13;25.17;;;1.70;99.90;;;;;;5040295;28;20783;-86
2023/03/10 06:15:24;;;;;;;53.47;24.40;;;1.80;99.90;;;;;;4996936;28;20073;-87
2023/03/10 06:17:49;;;;;;;47.88;24.15;;;1.70;99.90;;;;;;5044959;28;20502;-86
2023/03/10 06:20:15;;;;;;;48.33;22.65;;;1.80;99.90;;;;;;4991943;28;20123;-86
2023/03/10 06:22:41;;;;;;;46.60;21.77;;;1.80;99.90;;;;;;4976941;28;20125;-85
2023/03/10 06:25:09;;;;;;;46.33;21.75;;;1.90;99.90;;;;;;4980715;28;20060;-86
2023/03/10 06:27:35;;;;;;;51.67;22.65;;;1.70;99.90;;;;;;4976533;28;20048;-86
2023/03/10 06:30:01;;;;;;;44.15;21.55;;;1.90;99.90;;;;;;5061398;28;20081;-87
2023/03/10 06:32:27;;;;;;;44.95;20.90;;;1.90;99.90;;;;;;4997074;28;20494;-87
2023/03/10 06:34:52;;;;;;;40.78;20.38;;;1.70;99.90;;;;;;4967915;28;20103;-86
2023/03/10 06:37:19;;;;;;;39.20;19.35;;;2.00;99.90;;;;;;4975471;28;20043;-87
2023/03/10 06:39:45;;;;;;;33.42;17.85;;;1.80;99.90;;;;;;4995155;28;20044;-86
2023/03/10 06:42:13;;;;;;;36.55;18.38;;;2.00;99.90;;;;;;4988656;28;20071;-86
2023/03/10 06:44:39;;;;;;;35.85;18.90;;;1.80;99.90;;;;;;4979978;28;20295;-86
2023/03/10 06:47:04;;;;;;;34.28;18.52;;;2.10;99.90;;;;;;5041518;28;20248;-86
2023/03/10 06:49:31;;;;;;;37.60;18.05;;;1.80;99.90;;;;;;4982640;28;20172;-87
2023/03/10 06:51:58;;;;;;;34.78;17.73;;;2.00;99.90;;;;;;4979069;28;20478;-86
2023/03/10 06:54:24;;;;;;;32.97;17.20;;;1.90;99.90;;;;;;4989782;28;20042;-86
2023/03/10 06:56:50;;;;;;;31.02;17.27;;;2.00;99.90;;;;;;4996122;28;20046;-87
2023/03/10 06:59:16;;;;;;;31.90;17.10;;;1.90;99.90;;;;;;4989017;28;20108;-86
2023/03/10 07:01:42;;;;;;;30.10;16.63;;;2.10;99.90;;;;;;4967805;28;20034;-86
2023/03/10 07:04:09;;;;;;;29.58;15.90;;;2.10;99.90;;;;;;4984746;28;20047;-88
2023/03/10 07:06:35;;;;;;;30.77;16.35;;;1.90;99.90;;;;;;4965466;28;20352;-86
2023/03/10 07:09:04;;;;;;;31.45;16.70;;;1.90;99.90;;;;;;4989065;28;20038;-86
2023/03/10 07:11:33;;;;;;;31.35;16.00;;;1.90;99.90;;;;;;4979126;28;20089;-86
2023/03/10 07:13:59;;;;;;;31.58;16.52;;;2.10;99.90;;;;;;4987485;28;20637;-86
2023/03/10 07:16:25;;;;;;;30.83;15.52;;;2.10;99.90;;;;;;4992280;28;20117;-86
2023/03/10 07:18:50;;;;;;;30.00;15.85;;;2.10;99.90;;;;;;4995783;28;20047;-87
2023/03/10 07:21:19;;;;;;;28.73;16.05;;;2.00;99.90;;;;;;4963316;28;20413;-87
2023/03/10 07:23:48;;;;;;;30.48;16.30;;;2.00;99.90;;;;;;4989251;28;20100;-87
2023/03/10 07:26:17;;;;;;;27.58;15.73;;;2.10;99.90;;;;;;4986082;28;20478;-87
2023/03/10 07:28:43;;;;;;;29.10;15.40;;;2.30;99.90;;;;;;4996905;28;20532;-86
2023/03/10 07:31:12;;;;;;;26.88;15.38;;;2.40;99.90;;;;;;4982960;28;20087;-87
2023/03/10 07:33:38;;;;;;;33.97;16.80;;;2.20;99.90;;;;;;4999206;28;20145;-86
2023/03/10 07:36:05;;;;;;;30.17;16.30;;;2.40;99.90;;;;;;4962806;28;20517;-85
2023/03/10 07:38:31;;;;;;;27.60;15.75;;;2.40;99.90;;;;;;4979062;28;20043;-85
2023/03/10 07:40:57;;;;;;;27.98;15.93;;;2.40;99.90;;;;;;4983308;28;20045;-85
2023/03/10 07:43:22;;;;;;;29.35;16.25;;;2.30;99.90;;;;;;4973598;28;20073;-86
2023/03/10 07:45:48;;;;;;;27.75;15.35;;;2.50;99.90;;;;;;4971310;28;20356;-86
2023/03/10 07:48:14;;;;;;;26.40;14.20;;;2.50;99.90;;;;;;4960273;28;20451;-86
2023/03/10 07:50:39;;;;;;;26.42;15.90;;;2.50;99.90;;;;;;4978296;28;20073;-85
2023/03/10 07:53:05;;;;;;;26.55;15.15;;;2.30;99.90;;;;;;4998624;28;20050;-85
2023/03/10 07:55:36;;;;;;;26.13;15.38;;;2.40;99.90;;;;;;4998863;28;20684;-84
2023/03/10 07:58:02;;;;;;;27.15;15.38;;;2.40;99.90;;;;;;4999305;28;20038;-84
2023/03/10 08:00:27;;;;;;;28.88;15.57;;;2.40;99.90;;;;;;4972013;28;20096;-83
2023/03/10 08:02:53;;;;;;;26.40;15.30;;;2.30;99.90;;;;;;4973055;28;20569;-84
2023/03/10 08:05:19;;;;;;;26.02;14.82;;;2.40;99.90;;;;;;4982461;28;20526;-84
2023/03/10 08:07:44;;;;;;;28.00;15.80;;;2.20;99.90;;;;;;4967131;28;20051;-84
2023/03/10 08:10:13;;;;;;;27.13;15.25;;;2.30;99.90;;;;;;4985704;28;20046;-84
2023/03/10 08:12:39;;;;;;;24.60;14.90;;;2.20;99.90;;;;;;5055814;28;20570;-86
2023/03/10 08:15:05;;;;;;;25.52;15.30;;;2.20;99.90;;;;;;4969798;28;20526;-85
2023/03/10 08:17:32;;;;;;;28.35;15.57;;;2.30;99.90;;;;;;4996964;28;20433;-85
2023/03/10 08:19:59;;;;;;;26.95;16.08;;;2.40;99.90;;;;;;4967681;28;20065;-84
2023/03/10 08:22:25;;;;;;;26.40;15.73;;;2.50;99.90;;;;;;4975480;28;20040;-85
2023/03/10 08:24:51;;;;;;;28.58;15.32;;;2.60;99.90;;;;;;5058208;28;20450;-85
2023/03/10 08:27:18;;;;;;;27.48;15.65;;;2.40;99.90;;;;;;4976598;28;20034;-85
2023/03/10 08:29:43;;;;;;;26.85;16.17;;;2.50;99.90;;;;;;4969398;28;20475;-84
2023/03/10 08:32:09;;;;;;;28.70;16.25;;;2.50;99.90;;;;;;4976344;28;20495;-84
2023/03/10 08:34:35;;;;;;;29.00;16.88;;;2.50;99.90;;;;;;4968128;28;20152;-85
2023/03/10 08:37:01;;;;;;;29.15;17.13;;;2.40;99.90;;;;;;4985586;28;20038;-85
2023/03/10 08:39:28;;;;;;;29.48;17.80;;;2.50;99.90;;;;;;4977284;28;20527;-86
2023/03/10 08:41:57;;;;;;;27.75;17.15;;;2.50;99.90;;;;;;4963898;28;20045;-85
2023/03/10 08:44:23;;;;;;;31.73;18.48;;;2.40;99.90;;;;;;4971508;28;20447;-85
2023/03/10 08:46:49;;;;;;;29.67;17.08;;;2.50;99.90;;;;;;4992590;28;20027;-84
2023/03/10 08:49:19;;;;;;;29.05;17.77;;;2.60;99.90;;;;;;4983738;28;20052;-85
2023/03/10 08:51:46;;;;;;;32.60;18.40;;;2.50;99.90;;;;;;4984714;28;20437;-85
2023/03/10 08:54:17;;;;;;;31.52;17.70;;;2.40;99.90;;;;;;5038424;28;20041;-84
2023/03/10 08:56:43;;;;;;;31.05;18.40;;;2.50;99.90;;;;;;4985606;28;20058;-85
2023/03/10 08:59:09;;;;;;;32.00;17.85;;;2.50;99.90;;;;;;4988378;28;20046;-85
2023/03/10 09:01:36;;;;;;;27.48;17.17;;;2.40;99.90;;;;;;4977607;28;22029;-85
2023/03/10 09:04:06;;;;;;;32.53;18.67;;;2.30;99.90;;;;;;4985965;28;20318;-85
2023/03/10 09:06:32;;;;;;;27.73;17.48;;;2.50;99.90;;;;;;4967564;28;20130;-85
2023/03/10 09:08:58;;;;;;;31.23;17.98;;;2.60;99.90;;;;;;4967278;28;20122;-85
2023/03/10 09:11:27;;;;;;;31.33;19.20;;;2.50;99.90;;;;;;4991865;28;20573;-85
2023/03/10 09:13:54;;;;;;;32.25;18.83;;;2.50;99.90;;;;;;4986658;28;20085;-85
2023/03/10 09:16:23;;;;;;;29.63;18.13;;;2.70;99.90;;;;;;4960829;28;20169;-84
2023/03/10 09:18:49;;;;;;;27.38;16.95;;;2.40;99.90;;;;;;4993354;28;20129;-84
2023/03/10 09:21:16;;;;;;;31.08;18.35;;;2.50;99.90;;;;;;4981950;28;20129;-85
2023/03/10 09:23:44;;;;;;;31.70;18.30;;;2.60;99.90;;;;;;4978870;28;20070;-85
2023/03/10 09:26:10;;;;;;;27.10;17.58;;;2.60;99.90;;;;;;5066856;28;20034;-85
2023/03/10 09:28:36;;;;;;;28.30;17.42;;;2.60;99.90;;;;;;4975484;28;20049;-85
2023/03/10 09:31:06;;;;;;;29.45;16.90;;;2.70;99.90;;;;;;4969947;28;20066;-85
2023/03/10 09:33:33;;;;;;;29.15;18.10;;;2.80;99.90;;;;;;5052105;28;20087;-85
2023/03/10 09:36:01;;;;;;;29.52;18.20;;;2.60;99.90;;;;;;4981790;28;20043;-85
2023/03/10 09:38:27;;;;;;;30.10;17.02;;;2.50;99.90;;;;;;4965227;28;20035;-85
2023/03/10 09:41:19;;;;;;;29.05;18.08;;;2.70;99.90;;;;;;4956906;28;20104;-85
2023/03/10 09:44:01;;;;;;;32.22;17.95;;;2.70;99.90;;;;;;4976566;28;20449;-84
2023/03/10 09:46:40;;;;;;;28.60;17.90;;;2.70;99.90;;;;;;4972032;28;20099;-85
2023/03/10 09:49:19;;;;;;;28.15;17.50;;;2.70;99.90;;;;;;5059492;28;20119;-85
2023/03/10 09:51:48;;;;;;;28.15;16.38;;;2.70;99.90;;;;;;4972084;28;20077;-85
2023/03/10 09:54:49;;;;;;;30.23;17.75;;;2.90;99.90;;;;;;5010293;28;20503;-85
2023/03/10 09:57:19;;;;;;;26.27;16.80;;;2.90;99.90;;;;;;4980700;28;20038;-85
2023/03/10 09:59:52;;;;;;;27.33;16.70;;;2.90;99.90;;;;;;4962515;28;20069;-85
2023/03/10 10:02:34;;;;;;;27.75;16.90;;;2.90;99.90;;;;;;4979058;28;20050;-85
2023/03/10 10:05:05;;;;;;;29.30;17.42;;;2.90;99.90;;;;;;4979528;28;20113;-85
2023/03/10 10:07:44;;;;;;;27.45;17.13;;;2.80;99.90;;;;;;4978801;28;20067;-85
2023/03/10 10:10:26;;;;;;;26.42;16.83;;;2.70;99.90;;;;;;4989931;28;20070;-84
2023/03/10 10:13:00;;;;;;;31.65;18.85;;;2.70;99.90;;;;;;4996791;28;20151;-85
2023/03/10 10:15:27;;;;;;;27.23;16.85;;;2.70;99.90;;;;;;4996569;28;20053;-85
2023/03/10 10:18:22;;;;;;;26.73;17.08;;;2.60;99.90;;;;;;4982938;28;20125;-85
2023/03/10 10:20:48;;;;;;;28.05;16.70;;;2.60;99.90;;;;;;4999779;28;20577;-85
2023/03/10 10:23:17;;;;;;;27.50;17.52;;;2.50;99.90;;;;;;5001441;28;20371;-85
2023/03/10 10:25:43;;;;;;;26.63;16.20;;;2.50;99.90;;;;;;5000599;28;20408;-84
2023/03/10 10:28:24;;;;;;;30.98;17.95;;;2.60;99.90;;;;;;4982625;28;20038;-83
2023/03/10 10:30:50;;;;;;;29.17;17.85;;;2.50;99.90;;;;;;4969145;28;20096;-84
2023/03/10 10:33:15;;;;;;;28.92;16.50;;;2.30;99.90;;;;;;5000513;28;20046;-84
2023/03/10 10:36:00;;;;;;;25.40;15.93;;;2.50;99.90;;;;;;4979178;28;20038;-84
2023/03/10 10:38:30;;;;;;;31.38;18.50;;;2.30;99.90;;;;;;4983282;28;20043;-84
2023/03/10 10:41:02;;;;;;;27.35;16.42;;;2.30;99.90;;;;;;5016716;28;20038;-84
2023/03/10 10:43:29;;;;;;;26.63;17.27;;;2.40;99.90;;;;;;4990897;28;20132;-85
2023/03/10 10:46:02;;;;;;;27.00;17.65;;;2.60;99.90;;;;;;4986535;28;20043;-84
2023/03/10 10:48:46;;;;;;;32.25;18.25;;;2.60;99.90;;;;;;5054664;28;20402;-84
2023/03/10 10:51:36;;;;;;;31.05;18.40;;;2.30;99.90;;;;;;4978692;28;20569;-85
2023/03/10 10:54:20;;;;;;;29.45;18.25;;;2.50;99.90;;;;;;4979242;28;20049;-84
2023/03/10 10:56:58;;;;;;;27.63;17.27;;;2.50;99.90;;;;;;4981083;28;20030;-84
2023/03/10 10:59:33;;;;;;;28.70;17.17;;;2.70;99.90;;;;;;4998743;28;20044;-85
2023/03/10 11:02:19;;;;;;;28.85;17.48;;;2.50;99.90;;;;;;4990751;28;20334;-84
2023/03/10 11:04:48;;;;;;;26.85;17.10;;;2.70;99.90;;;;;;4989558;28;20038;-84
2023/03/10 11:07:24;;;;;;;26.98;15.73;;;2.60;99.90;;;;;;4970986;28;20042;-85
2023/03/10 11:09:50;;;;;;;26.88;16.02;;;2.70;99.90;;;;;;5077734;28;20606;-84
2023/03/10 11:12:24;;;;;;;24.83;15.23;;;2.50;99.90;;;;;;4988414;28;20042;-84
2023/03/10 11:15:19;;;;;;;25.70;15.70;;;2.50;99.90;;;;;;4977756;28;20046;-85
2023/03/10 11:18:15;;;;;;;24.73;15.25;;;2.50;99.90;;;;;;4991834;28;20039;-85
2023/03/10 11:20:53;;;;;;;25.85;15.23;;;2.50;99.90;;;;;;5045890;28;20046;-85
2023/03/10 11:23:40;;;;;;;26.33;15.88;;;2.30;99.90;;;;;;4995186;28;20082;-85
2023/03/10 11:26:31;;;;;;;26.63;15.65;;;2.40;99.90;;;;;;4996699;28;20030;-84
2023/03/10 11:29:29;;;;;;;25.40;15.43;;;2.20;99.90;;;;;;4968226;28;20046;-85
2023/03/10 11:32:13;;;;;;;26.50;15.77;;;2.30;99.90;;;;;;5057935;28;20082;-85
2023/03/10 11:34:44;;;;;;;29.40;17.67;;;2.40;99.90;;;;;;4974108;28;20042;-85
2023/03/10 11:37:31;;;;;;;29.00;16.80;;;2.40;99.90;;;;;;4975012;28;20409;-85
2023/03/10 11:40:10;;;;;;;28.40;17.17;;;2.30;99.90;;;;;;5000075;28;20560;-84
2023/03/10 11:42:45;;;;;;;27.92;16.50;;;2.40;99.90;;;;;;5054417;28;20078;-84
2023/03/10 11:45:13;;;;;;;;;;;2.40;99.90;;;;;;4966281;28;20060;-85
2023/03/10 11:48:24;;;;;;;32.15;18.38;;;2.30;99.90;;;;;;4973499;28;20040;-85
2023/03/10 11:50:53;;;;;;;29.83;17.25;;;2.00;99.90;;;;;;5034091;28;20531;-85
2023/03/10 11:53:44;;;;;;;27.38;16.75;;;2.20;99.90;;;;;;4975388;28;20202;-85
2023/03/10 11:56:13;;;;;;;30.73;17.75;;;2.30;99.90;;;;;;4978757;28;20042;-85
2023/03/10 11:58:39;;;;;;;31.95;17.75;;;2.30;99.90;;;;;;4975117;28;20410;-84
2023/03/10 12:01:10;;;;;;;34.20;19.15;;;2.20;99.90;;;;;;4971365;28;20075;-84
2023/03/10 12:04:13;;;;;;;28.00;17.23;;;2.30;99.90;;;;;;4964326;28;20047;-84
2023/03/10 12:06:55;;;;;;;27.60;17.77;;;2.20;99.90;;;;;;4985650;28;20123;-85
2023/03/10 12:09:45;;;;;;;28.23;17.25;;;2.20;99.90;;;;;;5072337;28;20035;-84
2023/03/10 12:12:17;;;;;;;27.23;16.63;;;2.10;99.90;;;;;;4968690;28;20063;-84
2023/03/10 12:14:44;;;;;;;31.38;18.25;;;2.30;99.90;;;;;;4991416;28;20046;-84
2023/03/10 12:17:13;;;;;;;29.90;17.75;;;2.30;99.90;;;;;;5003237;28;20731;-85
2023/03/10 12:20:10;;;;;;;29.40;16.80;;;2.30;99.90;;;;;;4984059;28;20086;-84
2023/03/10 12:23:05;;;;;;;30.20;17.23;;;2.40;99.90;;;;;;5051089;28;20058;-84
2023/03/10 12:25:34;;;;;;;28.77;16.83;;;2.30;99.90;;;;;;4950808;28;20125;-85
2023/03/10 12:28:15;;;;;;;29.77;16.63;;;2.50;99.90;;;;;;4964387;28;20103;-85
2023/03/10 12:30:51;;;;;;;28.05;17.30;;;2.50;99.90;;;;;;4987386;28;20407;-84
2023/03/10 12:33:29;;;;;;;29.20;17.15;;;2.70;99.90;;;;;;4965196;28;20093;-86
2023/03/10 12:36:01;;;;;;;27.52;17.00;;;2.70;99.90;;;;;;5058486;28;20361;-85
2023/03/10 12:38:36;;;;;;;26.38;15.65;;;2.60;99.90;;;;;;5061343;28;20045;-86
2023/03/10 12:41:02;;;;;;;27.42;16.55;;;2.80;99.90;;;;;;4976716;28;20039;-85
2023/03/10 12:43:45;;;;;;;29.35;18.48;;;2.90;99.90;;;;;;4969022;28;20042;-85
2023/03/10 12:46:17;;;;;;;27.48;15.88;;;2.60;99.90;;;;;;4999059;28;20387;-86
2023/03/10 12:48:48;;;;;;;25.48;15.55;;;2.60;99.90;;;;;;4977014;28;20035;-86
2023/03/10 12:51:18;;;;;;;25.38;16.17;;;2.70;99.90;;;;;;4982056;28;20045;-85
2023/03/10 12:54:12;;;;;;;25.13;14.98;;;2.70;99.90;;;;;;4976880;28;20216;-85